Time;durP1;ratioP1;P1;durP2;ratioP2;P2;SDS_P1;SDS_P2;PMS_P1;PMS_P2;Temp;Humidity;BMP_temperature;BMP_pressure;BME280_temperature;BME280_humidity;BME280_pressure;Samples;Min_cycle;Max_cycle;Signal;HPM_P1;HPM_P2
2021/06/23 00:02:19;;;;;;;;;;;;;;;22.53;62.79;96907.56;1652697;85;20134;-76
2021/06/23 00:04:45;;;;;;;;;;;;;;;22.51;62.70;96908.27;1647128;85;20144;-77
2021/06/23 00:07:11;;;;;;;;;;;;;;;22.51;63.23;96908.27;1675004;85;20162;-79
2021/06/23 00:09:37;;;;;;;;;;;;;;;22.49;62.28;96914.39;1648556;85;20437;-78
2021/06/23 00:12:04;;;;;;;;;;;;;;;22.46;63.12;96911.07;1657759;85;20169;-78
2021/06/23 00:14:31;;;;;;;;;;;;;;;22.44;61.94;96919.84;1659940;85;20130;-78
2021/06/23 00:16:57;;;;;;;;;;;;;;;22.41;62.56;96920.23;1633858;87;20110;-78
2021/06/23 00:19:23;;;;;;;;;;;;;;;22.37;63.29;96917.62;1659716;85;20138;-78
2021/06/23 00:21:50;;;;;;;;;;;;;;;22.34;64.39;96924.73;1647663;87;20140;-77
2021/06/23 00:24:16;;;;;;;;;;;;;;;22.21;63.56;96916.13;1651785;85;20463;-77
2021/06/23 00:26:42;;;;;;;;;;;;;;;22.16;64.20;96915.92;1674540;85;20158;-78
2021/06/23 00:29:08;;;;;;;;;;;;;;;22.09;63.35;96909.19;1645718;87;20132;-77
2021/06/23 00:31:36;;;;;;;;;;;;;;;22.03;63.66;96911.34;1647936;85;20154;-78
2021/06/23 00:34:03;;;;;;;;;;;;;;;21.97;64.13;96908.09;1633514;87;20140;-78
2021/06/23 00:36:30;;;;;;;;;;;;;;;21.91;64.08;96904.36;1619001;87;20132;-77
2021/06/23 00:38:57;;;;;;;;;;;;;;;21.84;64.00;96903.02;1633516;87;20184;-77
2021/06/23 00:41:23;;;;;;;;;;;;;;;21.79;64.18;96900.08;1644925;87;20161;-79
2021/06/23 00:43:51;;;;;;;;;;;;;;;21.72;63.37;96902.41;1660062;85;20450;-77
2021/06/23 00:46:18;;;;;;;;;;;;;;;21.66;64.03;96902.19;1660252;85;20174;-77
2021/06/23 00:48:46;;;;;;;;;;;;;;;21.60;63.83;96906.17;1660097;86;20475;-77
2021/06/23 00:51:14;;;;;;;;;;;;;;;21.52;64.48;96909.31;1623871;85;20445;-75
2021/06/23 00:54:00;;;;;;;;;;;;;;;21.47;62.23;96913.11;1645302;87;20154;-78
2021/06/23 00:56:34;;;;;;;;;;;;;;;21.38;63.05;96923.67;1633770;85;20232;-77
2021/06/23 00:59:01;;;;;;;;;;;;;;;21.30;64.47;96916.59;1660092;86;20151;-77
2021/06/23 01:01:31;;;;;;;;;;;;;;;21.26;64.48;96913.16;1643037;85;20116;-77
2021/06/23 01:03:58;;;;;;;;;;;;;;;21.21;64.89;96907.05;1634145;86;20132;-77
2021/06/23 01:06:24;;;;;;;;;;;;;;;21.18;66.05;96915.47;1635134;87;20218;-77
2021/06/23 01:08:52;;;;;;;;;;;;;;;21.15;64.89;96919.38;1634240;87;20124;-77
2021/06/23 01:11:20;;;;;;;;;;;;;;;21.13;65.27;96920.60;1639464;87;20439;-78
2021/06/23 01:14:04;;;;;;;;;;;;;;;21.10;65.38;96919.14;1661529;85;20179;-76
2021/06/23 01:16:37;;;;;;;;;;;;;;;21.07;64.96;96923.55;1652176;85;20130;-76
2021/06/23 01:19:09;;;;;;;;;;;;;;;21.05;64.08;96922.41;1650532;85;20464;-77
2021/06/23 01:21:37;;;;;;;;;;;;;;;21.02;64.37;96918.77;1629638;87;20478;-76
2021/06/23 01:24:05;;;;;;;;;;;;;;;21.00;65.01;96916.78;1642730;87;20293;-75
2021/06/23 01:26:32;;;;;;;;;;;;;;;20.98;65.40;96909.97;1656258;87;20150;-77
2021/06/23 01:29:00;;;;;;;;;;;;;;;20.95;66.05;96911.20;1632419;85;20136;-78
2021/06/23 01:31:28;;;;;;;;;;;;;;;20.93;65.12;96901.70;1638784;86;20446;-76
2021/06/23 01:33:55;;;;;;;;;;;;;;;20.90;65.34;96902.89;1645291;87;20197;-76
2021/06/23 01:36:23;;;;;;;;;;;;;;;20.88;64.62;96908.45;1631755;87;20132;-77
2021/06/23 01:38:51;;;;;;;;;;;;;;;20.85;65.19;96898.12;1611707;88;20168;-77
2021/06/23 01:41:17;;;;;;;;;;;;;;;20.84;65.05;96900.48;1630137;87;20164;-79
2021/06/23 01:43:45;;;;;;;;;;;;;;;20.81;65.61;96905.39;1636400;86;20153;-77
2021/06/23 01:46:11;;;;;;;;;;;;;;;20.79;63.88;96902.92;1629831;88;20128;-80
2021/06/23 01:48:37;;;;;;;;;;;;;;;20.77;63.49;96899.59;1611666;88;20133;-81
2021/06/23 01:51:05;;;;;;;;;;;;;;;20.75;62.47;96893.11;1653770;85;20130;-79
2021/06/23 01:53:37;;;;;;;;;;;;;;;20.73;62.03;96892.47;1655553;86;20137;-79
2021/06/23 01:56:05;;;;;;;;;;;;;;;20.72;62.55;96889.95;1656630;87;20138;-77
2021/06/23 01:58:37;;;;;;;;;;;;;;;20.71;63.12;96882.94;1655861;87;20138;-80
2021/06/23 02:01:26;;;;;;;;;;;;;;;20.71;63.28;96884.28;1655724;86;20134;-80
2021/06/23 02:04:00;;;;;;;;;;;;;;;20.72;62.55;96881.92;1654424;85;20111;-80
2021/06/23 02:06:48;;;;;;;;;;;;;;;20.73;62.56;96883.58;1656211;86;20423;-80
2021/06/23 02:09:24;;;;;;;;;;;;;;;20.74;62.74;96886.61;1663564;86;20446;-79
2021/06/23 02:12:26;;;;;;;;;;;;;;;20.78;64.08;96885.72;1659424;86;20137;-80
2021/06/23 02:14:59;;;;;;;;;;;;;;;20.82;64.07;96889.64;1639915;88;20428;-80
2021/06/23 02:17:30;;;;;;;;;;;;;;;20.84;63.14;96900.48;1651479;86;20153;-78
2021/06/23 02:20:10;;;;;;;;;;;;;;;20.83;65.00;96899.34;1665126;86;20132;-78
2021/06/23 02:22:38;;;;;;;;;;;;;;;20.90;64.56;96898.87;1661061;86;20140;-79
2021/06/23 02:25:09;;;;;;;;;;;;;;;20.93;65.18;96900.36;1638900;86;20144;-79
2021/06/23 02:27:41;;;;;;;;;;;;;;;20.98;65.51;96900.59;1639229;86;20131;-79
2021/06/23 02:30:10;;;;;;;;;;;;;;;21.01;65.37;96905.05;1627313;86;20124;-79
2021/06/23 02:32:38;;;;;;;;;;;;;;;21.03;65.93;96907.03;1641916;86;20130;-76
2021/06/23 02:35:06;;;;;;;;;;;;;;;21.07;65.88;96907.47;1664459;86;20137;-79
2021/06/23 02:37:35;;;;;;;;;;;;;;;21.11;65.81;96911.92;1665785;85;20431;-79
2021/06/23 02:40:04;;;;;;;;;;;;;;;21.15;66.08;96909.19;1667882;85;20174;-79
2021/06/23 02:42:32;;;;;;;;;;;;;;;21.19;66.13;96909.94;1666376;86;20122;-78
2021/06/23 02:44:59;;;;;;;;;;;;;;;21.21;66.70;96908.39;1614409;88;20426;-79
2021/06/23 02:47:25;;;;;;;;;;;;;;;21.21;66.28;96908.39;1661894;86;20444;-79
2021/06/23 02:49:56;;;;;;;;;;;;;;;21.22;66.49;96906.84;1665487;86;20141;-78
2021/06/23 02:52:23;;;;;;;;;;;;;;;21.26;66.52;96914.50;1666629;86;20125;-80
2021/06/23 02:54:50;;;;;;;;;;;;;;;21.28;66.45;96908.44;1667407;85;20150;-80
2021/06/23 02:57:19;;;;;;;;;;;;;;;21.29;66.33;96914.13;1665463;86;20141;-79
2021/06/23 02:59:47;;;;;;;;;;;;;;;21.32;66.26;96913.22;1629111;86;20133;-80
2021/06/23 03:02:13;;;;;;;;;;;;;;;21.30;66.22;96919.28;1643289;86;20176;-81
2021/06/23 03:04:46;;;;;;;;;;;;;;;21.26;65.93;96924.70;1663196;86;20122;-79
2021/06/23 03:07:15;;;;;;;;;;;;;;;21.26;66.08;96926.04;1666082;86;20459;-80
2021/06/23 03:09:43;;;;;;;;;;;;;;;21.27;66.42;96933.59;1666239;86;20140;-80
2021/06/23 03:12:26;;;;;;;;;;;;;;;21.28;66.42;96929.89;1638086;85;20116;-78
2021/06/23 03:15:01;;;;;;;;;;;;;;;21.26;66.70;96930.59;1655447;86;20130;-79
2021/06/23 03:17:27;;;;;;;;;;;;;;;21.21;66.15;96934.66;1667306;86;20137;-79
2021/06/23 03:19:54;;;;;;;;;;;;;;;21.17;66.47;96938.78;1680279;85;20202;-79
2021/06/23 03:22:20;;;;;;;;;;;;;;;21.13;67.05;96945.53;1667502;85;20451;-78
2021/06/23 03:24:47;;;;;;;;;;;;;;;21.13;66.79;96946.88;1645965;85;20148;-80
2021/06/23 03:27:14;;;;;;;;;;;;;;;21.14;67.24;96948.53;1655924;85;20141;-77
2021/06/23 03:29:41;;;;;;;;;;;;;;;21.15;66.97;96946.17;1653355;85;20155;-79
2021/06/23 03:32:10;;;;;;;;;;;;;;;21.17;66.10;96946.81;1670710;85;20137;-80
2021/06/23 03:34:38;;;;;;;;;;;;;;;21.21;65.77;96947.25;1656515;85;20200;-79
2021/06/23 03:37:07;;;;;;;;;;;;;;;21.28;66.32;96949.98;1643718;86;20164;-79
2021/06/23 03:39:36;;;;;;;;;;;;;;;21.34;65.07;96950.53;1663171;86;20442;-80
2021/06/23 03:42:05;;;;;;;;;;;;;;;21.38;65.34;96951.29;1666907;86;20165;-80
2021/06/23 03:44:31;;;;;;;;;;;;;;;21.47;65.46;96949.80;1653490;85;20439;-79
2021/06/23 03:46:59;;;;;;;;;;;;;;;21.55;65.84;96954.19;1653494;85;20476;-79
2021/06/23 03:49:25;;;;;;;;;;;;;;;21.66;65.54;96959.04;1628915;86;20426;-79
2021/06/23 03:51:53;;;;;;;;;;;;;;;21.78;65.67;96961.98;1659994;86;20485;-78
2021/06/23 03:54:21;;;;;;;;;;;;;;;22.07;65.72;96967.59;1642056;86;20144;-80
2021/06/23 03:56:48;;;;;;;;;;;;;;;22.48;64.75;96961.88;1647487;86;20133;-79
2021/06/23 03:59:14;;;;;;;;;;;;;;;22.93;64.35;96966.19;1667259;86;20155;-80
2021/06/23 04:01:41;;;;;;;;;;;;;;;23.44;63.48;96970.68;1666634;85;20448;-78
2021/06/23 04:04:11;;;;;;;;;;;;;;;23.95;62.07;96975.89;1668935;85;20171;-76
2021/06/23 04:06:42;;;;;;;;;;;;;;;24.46;61.38;96978.27;1648710;85;20442;-78
2021/06/23 04:09:09;;;;;;;;;;;;;;;24.99;60.46;96978.20;1662717;85;20139;-80
2021/06/23 04:11:37;;;;;;;;;;;;;;;25.47;59.53;96976.28;1665365;85;20425;-80
2021/06/23 04:14:05;;;;;;;;;;;;;;;25.90;58.27;96975.94;1649671;85;20461;-79
2021/06/23 04:16:32;;;;;;;;;;;;;;;26.41;56.88;96979.85;1626897;87;20441;-81
2021/06/23 04:18:59;;;;;;;;;;;;;;;26.89;55.62;96984.93;1617828;87;20423;-79
2021/06/23 04:21:25;;;;;;;;;;;;;;;27.32;55.19;96992.48;1652774;87;20504;-80
2021/06/23 04:23:53;;;;;;;;;;;;;;;27.74;54.06;96989.19;1654695;85;20138;-78
2021/06/23 04:26:19;;;;;;;;;;;;;;;28.25;51.54;96995.45;1635686;87;20473;-79
2021/06/23 04:28:45;;;;;;;;;;;;;;;28.70;50.65;96999.84;1634031;85;20132;-80
2021/06/23 04:31:12;;;;;;;;;;;;;;;29.11;49.07;97004.14;1655452;85;20393;-77
2021/06/23 04:33:38;;;;;;;;;;;;;;;29.57;52.24;97006.80;1656882;85;20197;-79
2021/06/23 04:36:06;;;;;;;;;;;;;;;29.93;48.03;96997.58;1658865;85;20152;-80
2021/06/23 04:38:33;;;;;;;;;;;;;;;30.32;47.47;97000.23;1626851;88;20129;-82
2021/06/23 04:41:00;;;;;;;;;;;;;;;30.74;45.39;96994.75;1648107;85;20139;-80
2021/06/23 04:43:27;;;;;;;;;;;;;;;31.07;48.64;96995.64;1680910;85;20136;-79
2021/06/23 04:45:54;;;;;;;;;;;;;;;31.41;44.52;96994.88;1657213;85;20424;-81
2021/06/23 04:48:23;;;;;;;;;;;;;;;31.73;45.90;96994.02;1653564;86;20138;-80
2021/06/23 04:50:50;;;;;;;;;;;;;;;32.07;43.33;96992.86;1636564;85;20183;-79
2021/06/23 04:53:25;;;;;;;;;;;;;;;32.36;44.04;96993.28;1636763;87;20122;-80
2021/06/23 04:55:53;;;;;;;;;;;;;;;32.62;44.93;96985.17;1653176;87;20461;-80
2021/06/23 04:58:21;;;;;;;;;;;;;;;33.11;40.69;97004.94;1653247;87;20142;-81
2021/06/23 05:00:49;;;;;;;;;;;;;;;33.44;41.55;97003.63;1634993;87;20215;-80
2021/06/23 05:03:18;;;;;;;;;;;;;;;33.81;39.59;96996.74;1633096;85;20215;-80
2021/06/23 05:05:44;;;;;;;;;;;;;;;34.03;38.41;97008.21;1656331;85;20140;-80
2021/06/23 05:08:10;;;;;;;;;;;;;;;34.27;37.66;97004.03;1627195;87;20140;-80
2021/06/23 05:10:36;;;;;;;;;;;;;;;34.59;36.36;97007.75;1642744;85;20413;-79
2021/06/23 05:13:03;;;;;;;;;;;;;;;34.81;34.89;97006.52;1684183;85;20176;-80
2021/06/23 05:15:29;;;;;;;;;;;;;;;35.12;34.67;97009.93;1660524;85;20184;-79
2021/06/23 05:17:56;;;;;;;;;;;;;;;35.40;33.51;97010.80;1673271;85;20140;-79
2021/06/23 05:20:23;;;;;;;;;;;;;;;35.60;33.42;97012.03;1674126;85;20134;-81
2021/06/23 05:22:50;;;;;;;;;;;;;;;35.83;33.32;97022.50;1656421;85;20208;-79
2021/06/23 05:25:18;;;;;;;;;;;;;;;35.96;39.27;97019.12;1668573;85;20467;-80
2021/06/23 05:27:44;;;;;;;;;;;;;;;35.82;35.31;97026.34;1634459;86;20136;-77
2021/06/23 05:30:15;;;;;;;;;;;;;;;35.79;34.09;97031.86;1644444;85;20110;-80
2021/06/23 05:32:41;;;;;;;;;;;;;;;36.10;32.11;97025.53;1652064;85;20138;-78
2021/06/23 05:35:10;;;;;;;;;;;;;;;36.40;30.44;97024.92;1644097;86;20134;-81
2021/06/23 05:37:35;;;;;;;;;;;;;;;36.43;32.02;97024.11;1656316;85;20102;-77
2021/06/23 05:40:02;;;;;;;;;;;;;;;36.51;31.64;97033.05;1645836;87;20135;-78
2021/06/23 05:42:28;;;;;;;;;;;;;;;36.46;33.77;97032.56;1638513;87;20360;-77
2021/06/23 05:44:55;;;;;;;;;;;;;;;36.24;30.12;97033.08;1656514;87;20141;-78
2021/06/23 05:47:21;;;;;;;;;;;;;;;36.35;30.36;97037.31;1656707;86;20161;-78
2021/06/23 05:49:47;;;;;;;;;;;;;;;36.37;30.65;97037.84;1651543;87;20119;-76
2021/06/23 05:52:13;;;;;;;;;;;;;;;36.53;30.43;97043.99;1651111;86;20411;-76
2021/06/23 05:54:39;;;;;;;;;;;;;;;36.56;30.21;97041.21;1652749;85;20509;-78
2021/06/23 05:57:06;;;;;;;;;;;;;;;36.52;32.69;97039.61;1658677;85;20403;-77
2021/06/23 05:59:33;;;;;;;;;;;;;;;36.52;34.18;97043.73;1640840;87;20148;-77
2021/06/23 06:01:59;;;;;;;;;;;;;;;36.35;31.94;97042.80;1630043;88;20110;-78
2021/06/23 06:04:25;;;;;;;;;;;;;;;36.14;30.08;97049.08;1654745;87;20146;-77
2021/06/23 06:06:51;;;;;;;;;;;;;;;36.28;32.08;97046.45;1655672;85;20150;-78
2021/06/23 06:09:17;;;;;;;;;;;;;;;36.71;33.31;97049.81;1660251;86;20101;-77
2021/06/23 06:11:43;;;;;;;;;;;;;;;37.06;29.87;97047.70;1663507;85;20128;-78
2021/06/23 06:14:10;;;;;;;;;;;;;;;37.28;31.28;97057.27;1667144;86;20498;-79
2021/06/23 06:16:36;;;;;;;;;;;;;;;36.19;31.34;97055.89;1667200;85;20140;-78
2021/06/23 06:19:02;;;;;;;;;;;;;;;35.71;30.51;97060.70;1667017;86;20215;-76
2021/06/23 06:21:28;;;;;;;;;;;;;;;35.58;32.41;97061.38;1662341;85;20222;-79
2021/06/23 06:23:55;;;;;;;;;;;;;;;35.34;31.83;97060.70;1658473;86;20158;-78
2021/06/23 06:26:21;;;;;;;;;;;;;;;35.11;32.18;97063.59;1640904;86;20133;-78
2021/06/23 06:28:47;;;;;;;;;;;;;;;35.17;31.74;97059.17;1667782;85;20141;-77
2021/06/23 06:31:13;;;;;;;;;;;;;;;35.39;32.13;97061.20;1665857;86;20203;-78
2021/06/23 06:33:39;;;;;;;;;;;;;;;35.14;32.71;97060.30;1667033;86;20465;-76
2021/06/23 06:36:06;;;;;;;;;;;;;;;34.68;32.96;97055.32;1664998;86;20131;-77
2021/06/23 06:38:32;;;;;;;;;;;;;;;34.76;33.38;97054.45;1671630;85;20124;-76
2021/06/23 06:40:58;;;;;;;;;;;;;;;34.85;32.87;97063.16;1665662;86;20166;-78
2021/06/23 06:43:25;;;;;;;;;;;;;;;34.87;32.98;97058.78;1670372;85;20134;-76
2021/06/23 06:45:53;;;;;;;;;;;;;;;34.64;34.04;97068.48;1654847;86;20398;-78
2021/06/23 06:48:21;;;;;;;;;;;;;;;34.70;34.64;97062.70;1659851;85;20429;-79
2021/06/23 06:50:48;;;;;;;;;;;;;;;34.64;34.32;97073.95;1643836;86;20132;-77
2021/06/23 06:53:15;;;;;;;;;;;;;;;34.88;34.29;97070.81;1623639;88;20217;-78
2021/06/23 06:55:41;;;;;;;;;;;;;;;35.02;34.70;97066.13;1663921;86;20186;-77
2021/06/23 06:58:09;;;;;;;;;;;;;;;35.03;34.30;97069.94;1663236;86;20414;-76
2021/06/23 07:00:37;;;;;;;;;;;;;;;35.24;34.79;97077.20;1667036;86;20425;-77
2021/06/23 07:03:05;;;;;;;;;;;;;;;35.29;34.22;97085.40;1667007;86;20190;-77
2021/06/23 07:05:31;;;;;;;;;;;;;;;34.67;35.05;97083.78;1667058;86;20223;-76
2021/06/23 07:07:57;;;;;;;;;;;;;;;34.34;35.50;97079.77;1666900;86;20447;-77
2021/06/23 07:10:23;;;;;;;;;;;;;;;34.28;35.83;97083.62;1672434;85;20181;-76
2021/06/23 07:12:49;;;;;;;;;;;;;;;33.68;36.87;97085.04;1656679;85;20143;-77
2021/06/23 07:15:17;;;;;;;;;;;;;;;33.55;37.41;97084.20;1644469;85;20239;-75
2021/06/23 07:17:43;;;;;;;;;;;;;;;33.35;37.87;97084.46;1649698;85;20427;-76
2021/06/23 07:20:10;;;;;;;;;;;;;;;33.62;37.87;97085.58;1656403;85;20229;-77
2021/06/23 07:22:37;;;;;;;;;;;;;;;33.74;37.42;97087.20;1653772;85;20458;-77
2021/06/23 07:25:04;;;;;;;;;;;;;;;33.75;37.51;97090.20;1643972;85;20114;-77
2021/06/23 07:27:30;;;;;;;;;;;;;;;33.78;37.71;97091.03;1651931;85;20434;-77
2021/06/23 07:29:56;;;;;;;;;;;;;;;33.58;38.06;97095.41;1656298;86;20169;-77
2021/06/23 07:32:26;;;;;;;;;;;;;;;33.35;38.53;97082.28;1652621;85;20138;-77
2021/06/23 07:37:19;;;;;;;;;;;;;;;32.88;39.72;97086.25;1644557;85;20423;-76
2021/06/23 07:39:45;;;;;;;;;;;;;;;32.90;39.70;97081.33;1656380;85;20142;-77
2021/06/23 07:42:12;;;;;;;;;;;;;;;32.94;39.76;97081.08;1656395;87;20142;-77
2021/06/23 07:44:46;;;;;;;;;;;;;;;33.23;39.14;97087.42;1656503;85;20174;-77
2021/06/23 07:47:11;;;;;;;;;;;;;;;32.90;39.24;97081.87;1651931;85;20164;-77
2021/06/23 07:49:39;;;;;;;;;;;;;;;32.74;39.94;97085.90;1652248;86;20107;-78
2021/06/23 08:08:37;;;;;;;;;;;;;;;34.30;36.89;97081.41;1656671;87;20126;-77
2021/06/23 08:10:55;;;;;;;;;;;;;;;34.40;36.98;97087.71;1669453;86;20084;-77
2021/06/23 08:13:21;;;;;;;;;;;;;;;34.13;36.36;97093.48;1651886;86;20166;-77
2021/06/23 08:15:48;;;;;;;;;;;;;;;34.15;36.91;97091.30;1641760;86;20114;-77
2021/06/23 08:18:15;;;;;;;;;;;;;;;33.96;37.27;97092.43;1630254;88;20413;-79
2021/06/23 08:20:42;;;;;;;;;;;;;;;33.83;37.51;97091.58;1636292;85;20113;-76
2021/06/23 08:23:08;;;;;;;;;;;;;;;34.07;38.01;97090.49;1643163;86;20125;-77
2021/06/23 08:25:35;;;;;;;;;;;;;;;34.43;37.08;97094.53;1656626;87;20222;-78
2021/06/23 08:28:01;;;;;;;;;;;;;;;34.17;36.78;97098.68;1654001;85;20409;-78
2021/06/23 08:30:29;;;;;;;;;;;;;;;34.01;36.86;97089.67;1643117;87;20130;-78
2021/06/23 08:32:57;;;;;;;;;;;;;;;33.82;36.36;97094.03;1639059;87;20468;-77
2021/06/23 08:35:24;;;;;;;;;;;;;;;33.78;37.11;97088.30;1650162;87;20154;-79
2021/06/23 08:37:50;;;;;;;;;;;;;;;33.91;37.21;97094.63;1656137;86;20138;-77
2021/06/23 08:40:18;;;;;;;;;;;;;;;34.18;37.37;97092.13;1655066;85;20129;-78
2021/06/23 08:42:45;;;;;;;;;;;;;;;34.19;36.98;97097.03;1624522;88;20155;-77
2021/06/23 08:45:12;;;;;;;;;;;;;;;34.06;36.82;97088.29;1639939;87;20170;-76
2021/06/23 08:47:40;;;;;;;;;;;;;;;33.89;37.15;97085.03;1656877;87;20138;-78
2021/06/23 08:50:07;;;;;;;;;;;;;;;33.70;37.35;97099.78;1656544;87;20138;-78
2021/06/23 08:52:35;;;;;;;;;;;;;;;33.53;37.58;97090.48;1656723;87;20154;-77
2021/06/23 08:55:04;;;;;;;;;;;;;;;33.46;37.79;97088.84;1655524;86;20131;-76
2021/06/23 08:57:31;;;;;;;;;;;;;;;33.47;37.79;97086.92;1656383;87;20443;-77
2021/06/23 08:59:58;;;;;;;;;;;;;;;33.70;37.70;97092.95;1656647;86;20414;-76
2021/06/23 09:02:25;;;;;;;;;;;;;;;33.86;37.48;97090.52;1656721;86;20446;-78
2021/06/23 09:05:00;;;;;;;;;;;;;;;33.63;37.30;97091.33;1656555;86;20130;-75
2021/06/23 09:07:37;;;;;;;;;;;;;;;33.43;37.38;97092.11;1655239;87;20110;-77
2021/06/23 09:10:06;;;;;;;;;;;;;;;33.26;37.35;97086.05;1652007;85;20165;-79
2021/06/23 09:12:33;;;;;;;;;;;;;;;33.49;37.50;97088.84;1663444;85;20213;-78
2021/06/23 09:15:00;;;;;;;;;;;;;;;33.74;37.52;97090.77;1651500;86;20110;-78
2021/06/23 09:17:27;;;;;;;;;;;;;;;33.93;37.41;97082.84;1655134;87;20106;-78
2021/06/23 09:19:56;;;;;;;;;;;;;;;34.13;36.30;97076.27;1656105;85;20717;-77
2021/06/23 09:22:39;;;;;;;;;;;;;;;34.21;35.43;97086.08;1638562;87;20125;-76
2021/06/23 09:25:15;;;;;;;;;;;;;;;34.23;35.37;97087.19;1638739;85;20134;-79
2021/06/23 09:27:47;;;;;;;;;;;;;;;34.18;35.33;97091.28;1650644;85;20133;-79
2021/06/23 09:30:34;;;;;;;;;;;;;;;33.62;34.97;97088.31;1654710;87;20130;-79
2021/06/23 09:33:21;;;;;;;;;;;;;;;33.38;35.71;97089.92;1656598;87;20137;-79
2021/06/23 09:35:59;;;;;;;;;;;;;;;33.24;35.90;97088.23;1658680;86;20459;-78
2021/06/23 09:38:46;;;;;;;;;;;;;;;33.29;36.55;97088.25;1652865;87;20166;-78
2021/06/23 09:41:24;;;;;;;;;;;;;;;33.50;35.68;97086.39;1656125;85;20099;-79
2021/06/23 09:43:55;;;;;;;;;;;;;;;33.47;35.24;97086.92;1652012;87;20143;-79
2021/06/23 09:46:25;;;;;;;;;;;;;;;33.60;35.97;97074.10;1651496;87;20110;-79
2021/06/23 09:49:06;;;;;;;;;;;;;;;33.84;35.70;97080.36;1656490;86;20172;-77
2021/06/23 09:51:41;;;;;;;;;;;;;;;34.06;34.57;97082.02;1657303;86;20211;-78
2021/06/23 09:54:08;;;;;;;;;;;;;;;34.01;35.65;97081.48;1656609;86;20137;-79
2021/06/23 09:56:45;;;;;;;;;;;;;;;33.55;36.35;97085.57;1656671;86;20149;-79
2021/06/23 09:59:08;;;;;;;;;;;;;;;33.56;35.76;97082.55;1655061;86;20427;-78
2021/06/23 10:01:39;;;;;;;;;;;;;;;33.12;36.76;97083.86;1651139;87;20447;-78
2021/06/23 10:04:09;;;;;;;;;;;;;;;33.08;36.86;97090.13;1651210;87;20122;-79
2021/06/23 10:06:42;;;;;;;;;;;;;;;32.96;37.48;97085.73;1656968;85;20193;-78
2021/06/23 10:09:24;;;;;;;;;;;;;;;32.72;37.80;97086.70;1654640;87;20146;-80
2021/06/23 10:11:56;;;;;;;;;;;;;;;32.52;37.96;97085.53;1650924;85;20162;-78
2021/06/23 10:14:23;;;;;;;;;;;;;;;32.31;38.35;97081.05;1648740;85;20419;-78
2021/06/23 10:16:50;;;;;;;;;;;;;;;32.19;38.34;97077.98;1656495;87;20459;-78
2021/06/23 10:19:17;;;;;;;;;;;;;;;32.33;38.61;97068.81;1656923;85;20415;-79
2021/06/23 10:21:44;;;;;;;;;;;;;;;32.48;37.82;97068.59;1655825;86;20252;-79
2021/06/23 10:24:13;;;;;;;;;;;;;;;32.62;37.79;97060.75;1636123;87;20137;-79
2021/06/23 10:26:48;;;;;;;;;;;;;;;32.73;37.17;97057.50;1657856;85;20137;-78
2021/06/23 10:29:21;;;;;;;;;;;;;;;32.75;36.07;97056.69;1632834;87;20250;-78
2021/06/23 10:31:48;;;;;;;;;;;;;;;32.79;36.10;97049.66;1633911;85;20184;-78
2021/06/23 10:34:16;;;;;;;;;;;;;;;32.84;35.79;97059.21;1656742;86;20117;-79
2021/06/23 10:36:43;;;;;;;;;;;;;;;32.67;36.50;97057.50;1654450;87;20168;-79
2021/06/23 10:39:09;;;;;;;;;;;;;;;32.83;36.34;97053.47;1657792;85;20163;-80
2021/06/23 10:41:39;;;;;;;;;;;;;;;32.89;36.90;97048.33;1619412;87;20441;-79
2021/06/23 10:44:20;;;;;;;;;;;;;;;33.12;37.12;97046.17;1629437;88;20540;-77
2021/06/23 10:46:53;;;;;;;;;;;;;;;33.29;36.37;97055.48;1645048;86;20130;-79
2021/06/23 10:49:39;;;;;;;;;;;;;;;33.36;35.67;97057.98;1656604;85;20153;-77
2021/06/23 10:52:25;;;;;;;;;;;;;;;33.57;36.45;97046.52;1676425;85;20131;-78
2021/06/23 10:55:01;;;;;;;;;;;;;;;33.82;35.89;97051.14;1636448;87;20470;-76
2021/06/23 10:57:36;;;;;;;;;;;;;;;33.85;35.20;97053.31;1650375;85;20114;-79
2021/06/23 11:00:18;;;;;;;;;;;;;;;33.70;35.09;97062.90;1636411;87;20403;-79
2021/06/23 11:02:52;;;;;;;;;;;;;;;33.33;34.50;97062.05;1644891;87;20455;-78
2021/06/23 11:05:18;;;;;;;;;;;;;;;32.92;35.55;97055.14;1655299;85;20126;-77
2021/06/23 11:07:48;;;;;;;;;;;;;;;32.88;35.65;97061.69;1656784;87;20137;-78
2021/06/23 11:10:17;;;;;;;;;;;;;;;32.84;35.73;97055.12;1658587;86;20419;-75
2021/06/23 11:13:02;;;;;;;;;;;;;;;32.80;36.00;97045.28;1666999;86;20126;-78
2021/06/23 11:15:37;;;;;;;;;;;;;;;32.84;35.62;97051.02;1667050;86;20157;-78
2021/06/23 11:18:28;;;;;;;;;;;;;;;32.91;35.42;97046.68;1662462;85;20165;-79
2021/06/23 11:20:57;;;;;;;;;;;;;;;33.00;35.08;97045.06;1665625;86;20142;-79
2021/06/23 11:23:47;;;;;;;;;;;;;;;33.03;34.94;97046.42;1665761;86;20154;-79
2021/06/23 11:26:23;;;;;;;;;;;;;;;33.20;35.15;97047.00;1665636;86;20157;-78
2021/06/23 11:28:54;;;;;;;;;;;;;;;33.39;34.24;97040.51;1669419;84;20446;-79
2021/06/23 11:31:22;;;;;;;;;;;;;;;33.45;33.62;97041.33;1667154;86;20129;-79
2021/06/23 11:33:55;;;;;;;;;;;;;;;33.50;33.44;97039.95;1666712;86;20145;-77
2021/06/23 11:36:20;;;;;;;;;;;;;;;33.52;33.74;97043.77;1666689;86;20479;-79
2021/06/23 11:38:47;;;;;;;;;;;;;;;33.31;34.01;97045.92;1663833;85;20469;-78
2021/06/23 11:41:15;;;;;;;;;;;;;;;33.14;34.61;97051.63;1665142;85;20121;-79
2021/06/23 11:43:43;;;;;;;;;;;;;;;33.10;34.02;97043.72;1640328;87;20160;-79
2021/06/23 11:46:10;;;;;;;;;;;;;;;33.13;33.34;97043.72;1656141;85;20172;-78
2021/06/23 11:48:37;;;;;;;;;;;;;;;33.17;32.74;97037.45;1663477;86;20169;-78
2021/06/23 11:51:05;;;;;;;;;;;;;;;33.30;30.99;97052.47;1663321;85;20129;-79
2021/06/23 11:53:31;;;;;;;;;;;;;;;33.30;31.27;97048.38;1643877;86;20136;-78
2021/06/23 11:55:57;;;;;;;;;;;;;;;33.23;31.52;97046.99;1655461;85;20477;-77
2021/06/23 11:58:23;;;;;;;;;;;;;;;33.16;32.79;97046.72;1655664;85;20164;-79
2021/06/23 12:00:49;;;;;;;;;;;;;;;33.27;32.24;97044.00;1653256;85;20135;-78
2021/06/23 12:03:17;;;;;;;;;;;;;;;33.40;31.47;97042.67;1669855;85;20161;-78
2021/06/23 12:05:45;;;;;;;;;;;;;;;33.55;32.08;97045.96;1666901;85;20133;-77
2021/06/23 12:08:11;;;;;;;;;;;;;;;33.60;31.79;97050.87;1691458;85;20416;-78
2021/06/23 12:10:40;;;;;;;;;;;;;;;33.67;31.39;97042.94;1673373;85;20464;-79
2021/06/23 12:13:10;;;;;;;;;;;;;;;33.71;30.82;97039.39;1668604;85;20123;-79
2021/06/23 12:15:37;;;;;;;;;;;;;;;33.75;32.06;97045.12;1643717;85;20406;-77
2021/06/23 12:18:07;;;;;;;;;;;;;;;33.84;32.09;97038.00;1658019;85;20181;-78
2021/06/23 12:20:36;;;;;;;;;;;;;;;33.92;31.82;97037.47;1655342;86;20122;-78
2021/06/23 12:23:08;;;;;;;;;;;;;;;34.00;30.37;97034.73;1664944;85;20158;-80
2021/06/23 12:25:43;;;;;;;;;;;;;;;34.04;29.07;97030.36;1682462;85;20156;-77
2021/06/23 12:28:15;;;;;;;;;;;;;;;33.98;29.72;97028.71;1680388;84;20129;-78
2021/06/23 12:30:43;;;;;;;;;;;;;;;34.10;28.77;97024.33;1666243;84;20158;-80
2021/06/23 12:33:11;;;;;;;;;;;;;;;34.22;28.29;97013.88;1651531;85;20148;-79
2021/06/23 12:35:40;;;;;;;;;;;;;;;34.47;29.64;97014.93;1654965;85;20149;-78
2021/06/23 12:38:07;;;;;;;;;;;;;;;34.73;28.47;97014.80;1659701;85;20145;-80
2021/06/23 12:40:35;;;;;;;;;;;;;;;34.89;28.55;97021.00;1669401;85;20416;-78
2021/06/23 12:43:01;;;;;;;;;;;;;;;35.03;28.42;97017.11;1669621;85;20282;-77
2021/06/23 12:45:34;;;;;;;;;;;;;;;35.01;27.63;97007.80;1660115;87;20434;-78
2021/06/23 12:48:04;;;;;;;;;;;;;;;35.10;26.71;97017.61;1667412;85;20167;-79
2021/06/23 12:50:30;;;;;;;;;;;;;;;35.13;27.25;97012.91;1687714;85;20131;-79
2021/06/23 12:52:57;;;;;;;;;;;;;;;35.15;26.96;97004.42;1687528;85;20131;-78
2021/06/23 12:55:24;;;;;;;;;;;;;;;35.22;27.87;97004.11;1687828;85;20135;-80
2021/06/23 12:57:50;;;;;;;;;;;;;;;35.31;26.83;97005.13;1685916;85;20210;-78
2021/06/23 13:00:17;;;;;;;;;;;;;;;35.15;26.54;97002.49;1687896;85;20172;-78
2021/06/23 13:02:46;;;;;;;;;;;;;;;35.03;26.41;96997.95;1654905;85;20142;-79
2021/06/23 13:05:14;;;;;;;;;;;;;;;35.03;26.91;97001.49;1684405;85;20135;-78
2021/06/23 13:07:41;;;;;;;;;;;;;;;35.11;27.31;97008.29;1687711;84;20160;-77
2021/06/23 13:10:08;;;;;;;;;;;;;;;34.98;26.25;97012.49;1656495;84;20189;-79
2021/06/23 13:12:34;;;;;;;;;;;;;;;34.60;26.35;97009.39;1679911;85;20175;-78
2021/06/23 13:15:02;;;;;;;;;;;;;;;34.57;27.33;97020.89;1682613;85;20134;-79
2021/06/23 13:17:29;;;;;;;;;;;;;;;34.58;27.46;97021.70;1660251;86;20125;-77